sensor_id;sensor_type;location;lat;lon;timestamp;pressure;altitude;pressure_sealevel;temperature;humidity
76551;BME280;68768;53.156;18.164;2023-12-22T00:00:10;97309.92;;;5.23;75.52
76551;BME280;68768;53.156;18.164;2023-12-22T00:02:56;97305.28;;;5.21;75.16
76551;BME280;68768;53.156;18.164;2023-12-22T00:05:22;97310.78;;;5.20;74.99
76551;BME280;68768;53.156;18.164;2023-12-22T00:07:48;97298.31;;;5.20;75.49
76551;BME280;68768;53.156;18.164;2023-12-22T00:10:14;97300.57;;;5.20;75.28
76551;BME280;68768;53.156;18.164;2023-12-22T00:12:40;97308.61;;;5.21;75.50
76551;BME280;68768;53.156;18.164;2023-12-22T00:15:07;97302.23;;;5.22;75.16
76551;BME280;68768;53.156;18.164;2023-12-22T00:17:33;97293.27;;;5.22;74.75
76551;BME280;68768;53.156;18.164;2023-12-22T00:19:59;97292.45;;;5.21;74.10
76551;BME280;68768;53.156;18.164;2023-12-22T00:22:29;97289.83;;;5.21;74.84
76551;BME280;68768;53.156;18.164;2023-12-22T00:24:56;97288.45;;;5.20;74.70
76551;BME280;68768;53.156;18.164;2023-12-22T00:27:22;97291.31;;;5.19;74.55
76551;BME280;68768;53.156;18.164;2023-12-22T00:29:48;97293.32;;;5.18;74.43
76551;BME280;68768;53.156;18.164;2023-12-22T00:32:15;97287.19;;;5.18;74.50
76551;BME280;68768;53.156;18.164;2023-12-22T00:34:41;97286.36;;;5.17;74.73
76551;BME280;68768;53.156;18.164;2023-12-22T00:37:07;97294.50;;;5.17;74.73
76551;BME280;68768;53.156;18.164;2023-12-22T00:39:33;97291.79;;;5.15;74.60
76551;BME280;68768;53.156;18.164;2023-12-22T00:42:00;97297.30;;;5.14;74.89
76551;BME280;68768;53.156;18.164;2023-12-22T00:44:27;97313.86;;;5.14;75.25
76551;BME280;68768;53.156;18.164;2023-12-22T00:46:55;97336.45;;;5.12;75.50
76551;BME280;68768;53.156;18.164;2023-12-22T00:49:21;97347.83;;;5.11;76.00
76551;BME280;68768;53.156;18.164;2023-12-22T00:51:48;97372.70;;;5.07;76.39
76551;BME280;68768;53.156;18.164;2023-12-22T00:54:14;97388.64;;;5.00;76.99
76551;BME280;68768;53.156;18.164;2023-12-22T00:56:40;97392.30;;;4.90;77.49
76551;BME280;68768;53.156;18.164;2023-12-22T00:59:06;97372.70;;;4.76;77.80
76551;BME280;68768;53.156;18.164;2023-12-22T01:01:32;97375.23;;;4.65;78.08
76551;BME280;68768;53.156;18.164;2023-12-22T01:03:59;97380.59;;;4.54;78.05
76551;BME280;68768;53.156;18.164;2023-12-22T01:06:25;97389.52;;;4.49;78.39
76551;BME280;68768;53.156;18.164;2023-12-22T01:08:51;97388.17;;;4.42;78.70
76551;BME280;68768;53.156;18.164;2023-12-22T01:11:17;97388.80;;;4.38;79.19
76551;BME280;68768;53.156;18.164;2023-12-22T01:13:44;97380.19;;;4.33;79.24
76551;BME280;68768;53.156;18.164;2023-12-22T01:16:10;97386.15;;;4.28;79.02
76551;BME280;68768;53.156;18.164;2023-12-22T01:18:36;97388.05;;;4.23;79.20
76551;BME280;68768;53.156;18.164;2023-12-22T01:21:03;97377.60;;;4.19;79.36
76551;BME280;68768;53.156;18.164;2023-12-22T01:23:29;97371.86;;;4.16;79.47
76551;BME280;68768;53.156;18.164;2023-12-22T01:25:55;97370.99;;;4.13;79.39
76551;BME280;68768;53.156;18.164;2023-12-22T01:28:21;97378.33;;;4.11;79.09
76551;BME280;68768;53.156;18.164;2023-12-22T01:30:48;97375.15;;;4.08;79.00
76551;BME280;68768;53.156;18.164;2023-12-22T01:33:14;97385.02;;;4.08;78.93
76551;BME280;68768;53.156;18.164;2023-12-22T01:35:40;97392.63;;;4.07;79.03
76551;BME280;68768;53.156;18.164;2023-12-22T01:38:06;97390.82;;;4.07;79.14
76551;BME280;68768;53.156;18.164;2023-12-22T01:40:32;97392.95;;;4.07;79.03
76551;BME280;68768;53.156;18.164;2023-12-22T01:43:00;97394.63;;;4.08;79.04
76551;BME280;68768;53.156;18.164;2023-12-22T01:45:26;97399.66;;;4.09;79.19
76551;BME280;68768;53.156;18.164;2023-12-22T01:47:53;97394.20;;;4.10;78.95
76551;BME280;68768;53.156;18.164;2023-12-22T01:50:20;97390.08;;;4.11;78.97
76551;BME280;68768;53.156;18.164;2023-12-22T01:52:47;97387.46;;;4.11;78.54
76551;BME280;68768;53.156;18.164;2023-12-22T01:55:14;97393.28;;;4.13;78.55
76551;BME280;68768;53.156;18.164;2023-12-22T01:57:41;97395.17;;;4.13;78.61
76551;BME280;68768;53.156;18.164;2023-12-22T02:00:08;97391.17;;;4.13;78.78
76551;BME280;68768;53.156;18.164;2023-12-22T02:02:41;97392.30;;;4.12;78.89
76551;BME280;68768;53.156;18.164;2023-12-22T02:05:10;97396.39;;;4.08;78.93
76551;BME280;68768;53.156;18.164;2023-12-22T02:07:38;97398.33;;;4.05;78.90
76551;BME280;68768;53.156;18.164;2023-12-22T02:10:08;97408.23;;;4.01;79.16
76551;BME280;68768;53.156;18.164;2023-12-22T02:12:37;97410.52;;;3.99;79.58
76551;BME280;68768;53.156;18.164;2023-12-22T02:15:04;97412.36;;;3.95;79.79
76551;BME280;68768;53.156;18.164;2023-12-22T02:17:55;97413.80;;;3.91;79.89
76551;BME280;68768;53.156;18.164;2023-12-22T02:20:25;97411.18;;;3.88;80.15
76551;BME280;68768;53.156;18.164;2023-12-22T02:22:52;97406.42;;;3.84;80.15
76551;BME280;68768;53.156;18.164;2023-12-22T02:25:18;97411.54;;;3.80;80.17
76551;BME280;68768;53.156;18.164;2023-12-22T02:27:48;97402.42;;;3.78;79.98
76551;BME280;68768;53.156;18.164;2023-12-22T02:30:57;97412.80;;;3.74;80.01
76551;BME280;68768;53.156;18.164;2023-12-22T02:33:29;97420.56;;;3.71;80.27
76551;BME280;68768;53.156;18.164;2023-12-22T02:36:03;97422.80;;;3.68;80.09
76551;BME280;68768;53.156;18.164;2023-12-22T02:38:30;97425.13;;;3.67;80.15
76551;BME280;68768;53.156;18.164;2023-12-22T02:40:57;97425.40;;;3.66;79.95
76551;BME280;68768;53.156;18.164;2023-12-22T02:43:23;97421.90;;;3.66;79.67
76551;BME280;68768;53.156;18.164;2023-12-22T02:45:52;97419.68;;;3.65;79.72
76551;BME280;68768;53.156;18.164;2023-12-22T02:48:18;97426.73;;;3.65;79.68
76551;BME280;68768;53.156;18.164;2023-12-22T02:50:44;97425.55;;;3.63;79.66
76551;BME280;68768;53.156;18.164;2023-12-22T02:53:10;97436.70;;;3.62;79.51
76551;BME280;68768;53.156;18.164;2023-12-22T02:55:36;97426.91;;;3.62;79.45
76551;BME280;68768;53.156;18.164;2023-12-22T02:58:03;97434.42;;;3.62;79.57
76551;BME280;68768;53.156;18.164;2023-12-22T03:00:29;97427.05;;;3.62;79.50
76551;BME280;68768;53.156;18.164;2023-12-22T03:02:55;97422.29;;;3.62;79.36
76551;BME280;68768;53.156;18.164;2023-12-22T03:05:21;97426.17;;;3.62;79.28
76551;BME280;68768;53.156;18.164;2023-12-22T03:07:47;97423.70;;;3.62;78.77
76551;BME280;68768;53.156;18.164;2023-12-22T03:10:14;97432.80;;;3.62;78.68
76551;BME280;68768;53.156;18.164;2023-12-22T03:12:40;97429.60;;;3.63;78.90
76551;BME280;68768;53.156;18.164;2023-12-22T03:15:06;97418.33;;;3.64;78.32
76551;BME280;68768;53.156;18.164;2023-12-22T03:17:32;97425.00;;;3.64;78.04
76551;BME280;68768;53.156;18.164;2023-12-22T03:19:59;97426.25;;;3.63;77.46
76551;BME280;68768;53.156;18.164;2023-12-22T03:22:25;97426.06;;;3.64;77.37
76551;BME280;68768;53.156;18.164;2023-12-22T03:24:51;97420.41;;;3.64;77.15
76551;BME280;68768;53.156;18.164;2023-12-22T03:27:17;97422.23;;;3.66;77.85
76551;BME280;68768;53.156;18.164;2023-12-22T03:29:44;97428.60;;;3.68;77.55
76551;BME280;68768;53.156;18.164;2023-12-22T03:32:10;97422.91;;;3.69;76.79
76551;BME280;68768;53.156;18.164;2023-12-22T03:34:36;97429.02;;;3.70;76.40
76551;BME280;68768;53.156;18.164;2023-12-22T03:37:03;97442.67;;;3.70;76.12
76551;BME280;68768;53.156;18.164;2023-12-22T03:39:29;97431.14;;;3.69;76.09
76551;BME280;68768;53.156;18.164;2023-12-22T03:41:55;97441.64;;;3.69;75.42
76551;BME280;68768;53.156;18.164;2023-12-22T03:44:21;97442.09;;;3.71;74.56
76551;BME280;68768;53.156;18.164;2023-12-22T03:46:47;97446.38;;;3.73;74.26
76551;BME280;68768;53.156;18.164;2023-12-22T03:49:13;97430.94;;;3.73;73.16
76551;BME280;68768;53.156;18.164;2023-12-22T03:51:39;97443.62;;;3.78;73.79
76551;BME280;68768;53.156;18.164;2023-12-22T03:54:07;97432.09;;;3.80;73.19
76551;BME280;68768;53.156;18.164;2023-12-22T03:56:33;97449.77;;;3.83;73.11
76551;BME280;68768;53.156;18.164;2023-12-22T03:58:59;97453.17;;;3.85;73.45
76551;BME280;68768;53.156;18.164;2023-12-22T04:01:25;97447.75;;;3.87;73.25
76551;BME280;68768;53.156;18.164;2023-12-22T04:03:52;97450.63;;;3.89;72.10
76551;BME280;68768;53.156;18.164;2023-12-22T04:06:18;97453.27;;;3.92;72.76
76551;BME280;68768;53.156;18.164;2023-12-22T04:08:44;97461.89;;;3.94;72.99
76551;BME280;68768;53.156;18.164;2023-12-22T04:11:10;97460.55;;;3.96;71.78
76551;BME280;68768;53.156;18.164;2023-12-22T04:13:36;97465.17;;;3.97;72.04
76551;BME280;68768;53.156;18.164;2023-12-22T04:16:03;97470.67;;;3.99;71.77
76551;BME280;68768;53.156;18.164;2023-12-22T04:18:31;97466.18;;;4.01;71.54
76551;BME280;68768;53.156;18.164;2023-12-22T04:20:58;97476.31;;;4.01;71.21
76551;BME280;68768;53.156;18.164;2023-12-22T04:23:24;97475.17;;;4.03;71.63
76551;BME280;68768;53.156;18.164;2023-12-22T04:25:50;97462.02;;;4.03;69.87
76551;BME280;68768;53.156;18.164;2023-12-22T04:28:17;97474.76;;;4.04;71.23
76551;BME280;68768;53.156;18.164;2023-12-22T04:30:43;97464.04;;;4.04;69.70
76551;BME280;68768;53.156;18.164;2023-12-22T04:33:09;97481.96;;;4.04;69.31
76551;BME280;68768;53.156;18.164;2023-12-22T04:35:35;97479.48;;;4.04;69.47
76551;BME280;68768;53.156;18.164;2023-12-22T04:38:01;97468.18;;;4.05;68.37
76551;BME280;68768;53.156;18.164;2023-12-22T04:40:28;97478.90;;;4.05;69.57
76551;BME280;68768;53.156;18.164;2023-12-22T04:42:54;97479.38;;;4.06;68.79
76551;BME280;68768;53.156;18.164;2023-12-22T04:45:21;97475.91;;;4.05;68.51
76551;BME280;68768;53.156;18.164;2023-12-22T04:47:47;97471.02;;;4.05;68.17
76551;BME280;68768;53.156;18.164;2023-12-22T04:50:13;97483.47;;;4.05;68.07
76551;BME280;68768;53.156;18.164;2023-12-22T04:52:39;97489.65;;;4.04;68.06
76551;BME280;68768;53.156;18.164;2023-12-22T04:55:05;97487.91;;;4.04;68.97
76551;BME280;68768;53.156;18.164;2023-12-22T04:57:32;97476.02;;;4.03;68.27
76551;BME280;68768;53.156;18.164;2023-12-22T04:59:58;97495.18;;;4.03;68.09
76551;BME280;68768;53.156;18.164;2023-12-22T05:02:24;97478.77;;;4.02;67.99
76551;BME280;68768;53.156;18.164;2023-12-22T05:04:50;97495.81;;;4.01;68.81
76551;BME280;68768;53.156;18.164;2023-12-22T05:07:16;97495.92;;;3.99;68.27
76551;BME280;68768;53.156;18.164;2023-12-22T05:09:42;97494.61;;;3.98;68.13
76551;BME280;68768;53.156;18.164;2023-12-22T05:12:09;97494.02;;;3.96;67.88
76551;BME280;68768;53.156;18.164;2023-12-22T05:14:35;97499.35;;;3.95;68.48
76551;BME280;68768;53.156;18.164;2023-12-22T05:17:01;97498.33;;;3.95;68.09
76551;BME280;68768;53.156;18.164;2023-12-22T05:19:28;97490.71;;;3.93;68.16
76551;BME280;68768;53.156;18.164;2023-12-22T05:21:54;97491.17;;;3.91;67.74
76551;BME280;68768;53.156;18.164;2023-12-22T05:24:22;97489.32;;;3.90;67.40
76551;BME280;68768;53.156;18.164;2023-12-22T05:26:48;97487.12;;;3.89;67.38
76551;BME280;68768;53.156;18.164;2023-12-22T05:29:15;97487.23;;;3.87;66.80
76551;BME280;68768;53.156;18.164;2023-12-22T05:31:41;97490.14;;;3.86;66.93
76551;BME280;68768;53.156;18.164;2023-12-22T05:34:07;97488.45;;;3.84;67.36
76551;BME280;68768;53.156;18.164;2023-12-22T05:36:36;97490.84;;;3.83;66.99
76551;BME280;68768;53.156;18.164;2023-12-22T05:39:02;97489.91;;;3.81;66.21
76551;BME280;68768;53.156;18.164;2023-12-22T05:41:28;97487.01;;;3.77;65.84
76551;BME280;68768;53.156;18.164;2023-12-22T05:43:55;97493.76;;;3.73;65.66
76551;BME280;68768;53.156;18.164;2023-12-22T05:46:21;97504.72;;;3.68;65.51
76551;BME280;68768;53.156;18.164;2023-12-22T05:48:47;97502.30;;;3.64;66.38
76551;BME280;68768;53.156;18.164;2023-12-22T05:51:13;97510.77;;;3.61;65.86
76551;BME280;68768;53.156;18.164;2023-12-22T05:53:40;97506.80;;;3.57;65.93
76551;BME280;68768;53.156;18.164;2023-12-22T05:56:22;97506.52;;;3.53;65.79
76551;BME280;68768;53.156;18.164;2023-12-22T05:58:49;97509.69;;;3.50;65.38
76551;BME280;68768;53.156;18.164;2023-12-22T06:01:17;97515.22;;;3.46;65.36
76551;BME280;68768;53.156;18.164;2023-12-22T06:03:45;97507.73;;;3.42;65.46
76551;BME280;68768;53.156;18.164;2023-12-22T06:06:12;97515.46;;;3.38;64.30
76551;BME280;68768;53.156;18.164;2023-12-22T06:08:38;97518.29;;;3.35;63.99
76551;BME280;68768;53.156;18.164;2023-12-22T06:11:05;97509.62;;;3.34;65.10
76551;BME280;68768;53.156;18.164;2023-12-22T06:13:31;97515.70;;;3.32;64.61
76551;BME280;68768;53.156;18.164;2023-12-22T06:15:57;97516.12;;;3.31;64.48
76551;BME280;68768;53.156;18.164;2023-12-22T06:18:24;97515.00;;;3.29;63.58
76551;BME280;68768;53.156;18.164;2023-12-22T06:20:50;97517.83;;;3.28;64.09
76551;BME280;68768;53.156;18.164;2023-12-22T06:23:16;97518.80;;;3.26;65.09
76551;BME280;68768;53.156;18.164;2023-12-22T06:25:43;97532.98;;;3.24;65.30
76551;BME280;68768;53.156;18.164;2023-12-22T06:28:09;97528.89;;;3.22;65.97
76551;BME280;68768;53.156;18.164;2023-12-22T06:30:35;97524.11;;;3.20;66.21
76551;BME280;68768;53.156;18.164;2023-12-22T06:33:01;97533.79;;;3.17;65.83
76551;BME280;68768;53.156;18.164;2023-12-22T06:35:28;97531.48;;;3.14;66.04
76551;BME280;68768;53.156;18.164;2023-12-22T06:37:54;97540.70;;;3.12;65.76
76551;BME280;68768;53.156;18.164;2023-12-22T06:40:21;97555.77;;;3.13;66.05
76551;BME280;68768;53.156;18.164;2023-12-22T06:42:47;97545.77;;;3.13;65.77
76551;BME280;68768;53.156;18.164;2023-12-22T06:45:13;97554.77;;;3.12;65.81
76551;BME280;68768;53.156;18.164;2023-12-22T06:47:39;97555.14;;;3.11;66.21
76551;BME280;68768;53.156;18.164;2023-12-22T06:50:06;97552.86;;;3.11;66.16
76551;BME280;68768;53.156;18.164;2023-12-22T06:52:32;97567.32;;;3.09;66.39
76551;BME280;68768;53.156;18.164;2023-12-22T06:54:58;97562.34;;;3.08;66.84
76551;BME280;68768;53.156;18.164;2023-12-22T06:57:24;97561.48;;;3.05;67.82
76551;BME280;68768;53.156;18.164;2023-12-22T06:59:51;97553.51;;;2.97;68.81
76551;BME280;68768;53.156;18.164;2023-12-22T07:02:17;97556.67;;;2.87;69.33
76551;BME280;68768;53.156;18.164;2023-12-22T07:07:49;97554.23;;;2.69;70.11
76551;BME280;68768;53.156;18.164;2023-12-22T07:10:16;97550.63;;;2.65;69.99
76551;BME280;68768;53.156;18.164;2023-12-22T07:12:42;97557.52;;;2.61;69.90
76551;BME280;68768;53.156;18.164;2023-12-22T07:15:08;97569.28;;;2.57;70.11
76551;BME280;68768;53.156;18.164;2023-12-22T07:17:35;97561.02;;;2.54;69.96
76551;BME280;68768;53.156;18.164;2023-12-22T07:20:01;97549.38;;;2.53;69.63
76551;BME280;68768;53.156;18.164;2023-12-22T07:22:29;97538.34;;;2.53;69.56
76551;BME280;68768;53.156;18.164;2023-12-22T07:24:55;97537.55;;;2.54;68.67
76551;BME280;68768;53.156;18.164;2023-12-22T07:27:21;97532.50;;;2.57;68.23
76551;BME280;68768;53.156;18.164;2023-12-22T07:29:47;97540.36;;;2.61;68.27
76551;BME280;68768;53.156;18.164;2023-12-22T07:32:14;97533.27;;;2.65;67.92
76551;BME280;68768;53.156;18.164;2023-12-22T07:34:40;97529.70;;;2.69;67.82
76551;BME280;68768;53.156;18.164;2023-12-22T07:37:06;97537.95;;;2.75;67.90
76551;BME280;68768;53.156;18.164;2023-12-22T07:39:33;97548.27;;;2.81;66.93
76551;BME280;68768;53.156;18.164;2023-12-22T07:42:00;97554.86;;;2.88;66.69
76551;BME280;68768;53.156;18.164;2023-12-22T07:44:26;97546.59;;;2.95;66.16
76551;BME280;68768;53.156;18.164;2023-12-22T07:46:59;97562.23;;;3.01;66.23
76551;BME280;68768;53.156;18.164;2023-12-22T07:49:26;97557.73;;;3.06;66.24
76551;BME280;68768;53.156;18.164;2023-12-22T07:51:53;97549.30;;;3.09;65.87
76551;BME280;68768;53.156;18.164;2023-12-22T07:54:19;97547.13;;;3.13;65.68
76551;BME280;68768;53.156;18.164;2023-12-22T07:56:45;97548.08;;;3.18;65.25
76551;BME280;68768;53.156;18.164;2023-12-22T07:59:11;97548.87;;;3.22;65.30
76551;BME280;68768;53.156;18.164;2023-12-22T08:01:38;97553.53;;;3.26;64.99
76551;BME280;68768;53.156;18.164;2023-12-22T08:04:05;97546.27;;;3.30;64.19
76551;BME280;68768;53.156;18.164;2023-12-22T08:06:31;97546.39;;;3.35;64.38
76551;BME280;68768;53.156;18.164;2023-12-22T08:08:57;97544.95;;;3.38;63.92
76551;BME280;68768;53.156;18.164;2023-12-22T08:11:23;97536.94;;;3.40;63.91
76551;BME280;68768;53.156;18.164;2023-12-22T08:13:51;97541.03;;;3.42;64.04
76551;BME280;68768;53.156;18.164;2023-12-22T08:16:17;97539.23;;;3.46;64.75
76551;BME280;68768;53.156;18.164;2023-12-22T08:18:43;97548.35;;;3.48;65.13
76551;BME280;68768;53.156;18.164;2023-12-22T08:21:09;97546.29;;;3.51;64.57
76551;BME280;68768;53.156;18.164;2023-12-22T08:23:35;97548.10;;;3.52;64.25
76551;BME280;68768;53.156;18.164;2023-12-22T08:26:02;97541.90;;;3.56;64.27
76551;BME280;68768;53.156;18.164;2023-12-22T08:28:28;97538.94;;;3.59;64.84
76551;BME280;68768;53.156;18.164;2023-12-22T08:30:54;97539.81;;;3.62;64.78
76551;BME280;68768;53.156;18.164;2023-12-22T08:33:20;97541.59;;;3.64;65.05
76551;BME280;68768;53.156;18.164;2023-12-22T08:35:46;97541.70;;;3.68;65.22
76551;BME280;68768;53.156;18.164;2023-12-22T08:38:13;97550.96;;;3.68;65.08
76551;BME280;68768;53.156;18.164;2023-12-22T08:40:39;97562.48;;;3.67;64.83
76551;BME280;68768;53.156;18.164;2023-12-22T08:43:05;97562.14;;;3.61;65.54
76551;BME280;68768;53.156;18.164;2023-12-22T08:45:32;97556.48;;;3.50;66.25
76551;BME280;68768;53.156;18.164;2023-12-22T08:47:58;97562.48;;;3.38;66.81
76551;BME280;68768;53.156;18.164;2023-12-22T08:50:24;97559.42;;;3.28;67.45
76551;BME280;68768;53.156;18.164;2023-12-22T08:52:51;97546.50;;;3.21;67.99
76551;BME280;68768;53.156;18.164;2023-12-22T08:55:17;97544.28;;;3.14;68.50
76551;BME280;68768;53.156;18.164;2023-12-22T08:57:43;97555.64;;;3.08;68.71
76551;BME280;68768;53.156;18.164;2023-12-22T09:00:10;97553.94;;;3.05;68.97
76551;BME280;68768;53.156;18.164;2023-12-22T09:02:36;97555.84;;;2.99;69.29
76551;BME280;68768;53.156;18.164;2023-12-22T09:05:03;97560.05;;;2.99;69.42
76551;BME280;68768;53.156;18.164;2023-12-22T09:07:29;97564.05;;;3.03;69.60
76551;BME280;68768;53.156;18.164;2023-12-22T09:09:55;97564.75;;;3.08;69.47
76551;BME280;68768;53.156;18.164;2023-12-22T09:12:21;97559.52;;;3.14;69.34
76551;BME280;68768;53.156;18.164;2023-12-22T09:14:47;97550.56;;;3.20;69.69
76551;BME280;68768;53.156;18.164;2023-12-22T09:17:13;97550.11;;;3.25;69.50
76551;BME280;68768;53.156;18.164;2023-12-22T09:19:40;97554.55;;;3.33;69.86
76551;BME280;68768;53.156;18.164;2023-12-22T09:22:06;97556.27;;;3.40;69.39
76551;BME280;68768;53.156;18.164;2023-12-22T09:24:32;97546.70;;;3.47;69.13
76551;BME280;68768;53.156;18.164;2023-12-22T09:26:58;97540.83;;;3.51;68.97
76551;BME280;68768;53.156;18.164;2023-12-22T09:29:29;97539.64;;;3.53;69.07
76551;BME280;68768;53.156;18.164;2023-12-22T09:31:56;97532.54;;;3.55;68.81
76551;BME280;68768;53.156;18.164;2023-12-22T09:34:22;97525.48;;;3.55;68.63
76551;BME280;68768;53.156;18.164;2023-12-22T09:36:48;97525.73;;;3.57;68.92
76551;BME280;68768;53.156;18.164;2023-12-22T09:39:14;97524.05;;;3.58;68.75
76551;BME280;68768;53.156;18.164;2023-12-22T09:41:50;97528.02;;;3.60;68.82
76551;BME280;68768;53.156;18.164;2023-12-22T09:44:19;97528.63;;;3.61;68.89
76551;BME280;68768;53.156;18.164;2023-12-22T09:46:47;97526.61;;;3.60;68.80
76551;BME280;68768;53.156;18.164;2023-12-22T09:49:18;97537.92;;;3.55;68.94
76551;BME280;68768;53.156;18.164;2023-12-22T09:51:45;97539.52;;;3.52;69.09
76551;BME280;68768;53.156;18.164;2023-12-22T09:54:13;97539.05;;;3.48;69.50
76551;BME280;68768;53.156;18.164;2023-12-22T09:56:40;97534.87;;;3.42;69.32
76551;BME280;68768;53.156;18.164;2023-12-22T09:59:11;97542.38;;;3.40;69.66
76551;BME280;68768;53.156;18.164;2023-12-22T10:01:45;97545.55;;;3.37;69.84
76551;BME280;68768;53.156;18.164;2023-12-22T10:04:14;97544.34;;;3.34;70.05
76551;BME280;68768;53.156;18.164;2023-12-22T10:06:41;97542.36;;;3.32;70.54
76551;BME280;68768;53.156;18.164;2023-12-22T10:09:08;97540.81;;;3.31;70.48
76551;BME280;68768;53.156;18.164;2023-12-22T10:11:36;97549.70;;;3.29;70.27
76551;BME280;68768;53.156;18.164;2023-12-22T10:14:04;97547.14;;;3.27;70.86
76551;BME280;68768;53.156;18.164;2023-12-22T10:16:31;97546.67;;;3.27;71.07
76551;BME280;68768;53.156;18.164;2023-12-22T10:18:59;97542.99;;;3.24;71.51
76551;BME280;68768;53.156;18.164;2023-12-22T10:21:25;97538.72;;;3.19;71.67
76551;BME280;68768;53.156;18.164;2023-12-22T10:23:52;97551.47;;;3.17;71.77
76551;BME280;68768;53.156;18.164;2023-12-22T10:26:18;97534.13;;;3.14;72.18
76551;BME280;68768;53.156;18.164;2023-12-22T10:28:47;97525.77;;;3.10;71.97
76551;BME280;68768;53.156;18.164;2023-12-22T10:31:13;97523.50;;;3.07;72.15
76551;BME280;68768;53.156;18.164;2023-12-22T10:33:40;97525.86;;;3.03;72.54
76551;BME280;68768;53.156;18.164;2023-12-22T10:36:07;97522.23;;;2.99;72.90
76551;BME280;68768;53.156;18.164;2023-12-22T10:38:34;97530.40;;;2.93;73.22
76551;BME280;68768;53.156;18.164;2023-12-22T10:41:05;97530.99;;;2.92;73.75
76551;BME280;68768;53.156;18.164;2023-12-22T10:43:39;97535.65;;;2.90;73.98
76551;BME280;68768;53.156;18.164;2023-12-22T10:46:06;97533.13;;;2.89;73.89
76551;BME280;68768;53.156;18.164;2023-12-22T10:48:34;97539.55;;;2.87;74.58
76551;BME280;68768;53.156;18.164;2023-12-22T10:51:00;97538.36;;;2.86;74.31
76551;BME280;68768;53.156;18.164;2023-12-22T10:53:27;97532.02;;;2.84;74.13
76551;BME280;68768;53.156;18.164;2023-12-22T10:55:53;97516.16;;;2.83;74.43
76551;BME280;68768;53.156;18.164;2023-12-22T10:58:19;97518.44;;;2.82;74.11
76551;BME280;68768;53.156;18.164;2023-12-22T11:00:47;97513.85;;;2.83;74.23
76551;BME280;68768;53.156;18.164;2023-12-22T11:03:17;97511.83;;;2.85;74.20
76551;BME280;68768;53.156;18.164;2023-12-22T11:05:46;97507.95;;;2.85;74.12
76551;BME280;68768;53.156;18.164;2023-12-22T11:08:14;97505.11;;;2.85;74.37
76551;BME280;68768;53.156;18.164;2023-12-22T11:10:42;97510.02;;;2.85;74.56
76551;BME280;68768;53.156;18.164;2023-12-22T11:13:12;97504.33;;;2.87;74.74
76551;BME280;68768;53.156;18.164;2023-12-22T11:15:39;97501.46;;;2.88;74.38
76551;BME280;68768;53.156;18.164;2023-12-22T11:18:07;97503.09;;;2.90;74.49
76551;BME280;68768;53.156;18.164;2023-12-22T11:20:35;97495.52;;;2.91;74.67
76551;BME280;68768;53.156;18.164;2023-12-22T11:23:04;97494.13;;;2.88;74.75
76551;BME280;68768;53.156;18.164;2023-12-22T11:25:31;97506.36;;;2.88;74.66
76551;BME280;68768;53.156;18.164;2023-12-22T11:27:58;97499.24;;;2.87;74.73
76551;BME280;68768;53.156;18.164;2023-12-22T11:30:27;97486.73;;;2.85;75.16
76551;BME280;68768;53.156;18.164;2023-12-22T11:32:57;97485.74;;;2.81;75.33
76551;BME280;68768;53.156;18.164;2023-12-22T11:35:24;97495.95;;;2.78;75.72
76551;BME280;68768;53.156;18.164;2023-12-22T11:37:51;97492.39;;;2.73;75.91
76551;BME280;68768;53.156;18.164;2023-12-22T11:40:19;97497.61;;;2.70;76.24
76551;BME280;68768;53.156;18.164;2023-12-22T11:42:48;97502.52;;;2.67;76.37
76551;BME280;68768;53.156;18.164;2023-12-22T11:45:17;97506.34;;;2.65;76.45
76551;BME280;68768;53.156;18.164;2023-12-22T11:47:43;97517.73;;;2.61;77.45
76551;BME280;68768;53.156;18.164;2023-12-22T11:50:11;97521.03;;;2.59;76.54
76551;BME280;68768;53.156;18.164;2023-12-22T11:52:38;97519.63;;;2.59;76.97
76551;BME280;68768;53.156;18.164;2023-12-22T11:55:05;97524.55;;;2.58;77.03
76551;BME280;68768;53.156;18.164;2023-12-22T11:57:38;97518.60;;;2.55;77.35
76551;BME280;68768;53.156;18.164;2023-12-22T12:00:09;97523.60;;;2.51;77.63
76551;BME280;68768;53.156;18.164;2023-12-22T12:02:55;97536.77;;;2.46;78.12
76551;BME280;68768;53.156;18.164;2023-12-22T12:05:22;97526.09;;;2.44;78.02
76551;BME280;68768;53.156;18.164;2023-12-22T12:07:49;97528.15;;;2.42;77.36
76551;BME280;68768;53.156;18.164;2023-12-22T12:15:33;97543.14;;;2.39;78.35
76551;BME280;68768;53.156;18.164;2023-12-22T12:18:00;97536.27;;;2.41;78.71
76551;BME280;68768;53.156;18.164;2023-12-22T12:20:27;97545.06;;;2.40;78.18
76551;BME280;68768;53.156;18.164;2023-12-22T12:22:56;97538.77;;;2.40;78.70
76551;BME280;68768;53.156;18.164;2023-12-22T12:25:23;97534.20;;;2.40;78.78
76551;BME280;68768;53.156;18.164;2023-12-22T12:28:05;97530.86;;;2.40;79.31
76551;BME280;68768;53.156;18.164;2023-12-22T12:30:33;97530.95;;;2.38;78.83
76551;BME280;68768;53.156;18.164;2023-12-22T12:33:06;97527.27;;;2.38;78.92
76551;BME280;68768;53.156;18.164;2023-12-22T12:35:33;97526.11;;;2.37;78.94
76551;BME280;68768;53.156;18.164;2023-12-22T12:38:00;97517.91;;;2.37;78.82
76551;BME280;68768;53.156;18.164;2023-12-22T12:40:30;97519.12;;;2.34;78.89
76551;BME280;68768;53.156;18.164;2023-12-22T12:42:59;97525.92;;;2.34;79.10
76551;BME280;68768;53.156;18.164;2023-12-22T12:45:25;97527.05;;;2.33;79.36
76551;BME280;68768;53.156;18.164;2023-12-22T12:47:56;97531.27;;;2.33;79.13
76551;BME280;68768;53.156;18.164;2023-12-22T12:50:26;97512.32;;;2.34;79.37
76551;BME280;68768;53.156;18.164;2023-12-22T12:52:52;97513.23;;;2.33;79.20
76551;BME280;68768;53.156;18.164;2023-12-22T12:55:22;97524.38;;;2.34;79.58
76551;BME280;68768;53.156;18.164;2023-12-22T12:57:53;97530.70;;;2.34;79.60
76551;BME280;68768;53.156;18.164;2023-12-22T13:00:32;97526.77;;;2.35;79.71
76551;BME280;68768;53.156;18.164;2023-12-22T13:03:05;97523.30;;;2.35;79.53
76551;BME280;68768;53.156;18.164;2023-12-22T13:05:32;97531.73;;;2.31;79.70
76551;BME280;68768;53.156;18.164;2023-12-22T13:08:08;97536.20;;;2.29;79.24